sensor_id;sensor_type;location;lat;lon;timestamp;P1;durP1;ratioP1;P2;durP2;ratioP2
1026;SDS011;502;48.746;9.214;2022-11-15T00:01:17;5.80;;;4.73;;
1026;SDS011;502;48.746;9.214;2022-11-15T00:04:22;6.13;;;5.53;;
1026;SDS011;502;48.746;9.214;2022-11-15T00:07:27;6.47;;;5.67;;
1026;SDS011;502;48.746;9.214;2022-11-15T00:10:33;6.33;;;5.40;;
1026;SDS011;502;48.746;9.214;2022-11-15T00:13:38;5.30;;;4.80;;
1026;SDS011;502;48.746;9.214;2022-11-15T00:16:43;8.17;;;5.17;;
1026;SDS011;502;48.746;9.214;2022-11-15T00:19:49;6.53;;;4.60;;
1026;SDS011;502;48.746;9.214;2022-11-15T00:22:54;5.73;;;3.77;;
1026;SDS011;502;48.746;9.214;2022-11-15T00:25:59;5.30;;;4.43;;
1026;SDS011;502;48.746;9.214;2022-11-15T00:29:04;8.03;;;3.97;;
1026;SDS011;502;48.746;9.214;2022-11-15T00:32:11;3.87;;;3.00;;
1026;SDS011;502;48.746;9.214;2022-11-15T00:35:15;4.40;;;3.47;;
1026;SDS011;502;48.746;9.214;2022-11-15T00:38:20;5.90;;;4.00;;
1026;SDS011;502;48.746;9.214;2022-11-15T00:41:25;4.37;;;3.37;;
1026;SDS011;502;48.746;9.214;2022-11-15T00:44:30;5.53;;;3.20;;
1026;SDS011;502;48.746;9.214;2022-11-15T00:47:36;4.40;;;2.93;;
1026;SDS011;502;48.746;9.214;2022-11-15T00:50:41;4.60;;;3.10;;
1026;SDS011;502;48.746;9.214;2022-11-15T00:53:46;4.33;;;3.93;;
1026;SDS011;502;48.746;9.214;2022-11-15T00:56:51;5.90;;;4.00;;
1026;SDS011;502;48.746;9.214;2022-11-15T00:59:55;4.83;;;3.53;;
1026;SDS011;502;48.746;9.214;2022-11-15T01:03:02;4.43;;;3.30;;
1026;SDS011;502;48.746;9.214;2022-11-15T01:06:09;4.80;;;4.30;;
1026;SDS011;502;48.746;9.214;2022-11-15T01:09:14;4.10;;;3.70;;
1026;SDS011;502;48.746;9.214;2022-11-15T01:12:19;4.10;;;3.23;;
1026;SDS011;502;48.746;9.214;2022-11-15T01:15:24;4.77;;;3.47;;
1026;SDS011;502;48.746;9.214;2022-11-15T01:18:30;3.67;;;3.30;;
1026;SDS011;502;48.746;9.214;2022-11-15T01:21:36;6.30;;;4.23;;
1026;SDS011;502;48.746;9.214;2022-11-15T01:24:40;5.23;;;4.07;;
1026;SDS011;502;48.746;9.214;2022-11-15T01:27:45;4.53;;;4.10;;
1026;SDS011;502;48.746;9.214;2022-11-15T01:30:50;3.90;;;3.30;;
1026;SDS011;502;48.746;9.214;2022-11-15T01:33:56;4.97;;;3.50;;
1026;SDS011;502;48.746;9.214;2022-11-15T01:37:02;3.50;;;3.20;;
1026;SDS011;502;48.746;9.214;2022-11-15T01:40:07;4.20;;;3.23;;
1026;SDS011;502;48.746;9.214;2022-11-15T01:43:19;4.60;;;3.23;;
1026;SDS011;502;48.746;9.214;2022-11-15T01:46:27;4.10;;;3.70;;
1026;SDS011;502;48.746;9.214;2022-11-15T01:49:35;6.63;;;3.80;;
1026;SDS011;502;48.746;9.214;2022-11-15T01:52:45;4.30;;;3.63;;
1026;SDS011;502;48.746;9.214;2022-11-15T01:55:50;5.10;;;3.10;;
1026;SDS011;502;48.746;9.214;2022-11-15T01:58:55;4.03;;;3.20;;
1026;SDS011;502;48.746;9.214;2022-11-15T02:02:01;4.50;;;3.73;;
1026;SDS011;502;48.746;9.214;2022-11-15T02:05:07;4.63;;;3.50;;
1026;SDS011;502;48.746;9.214;2022-11-15T02:08:12;6.50;;;4.13;;
1026;SDS011;502;48.746;9.214;2022-11-15T02:11:22;4.33;;;3.43;;
1026;SDS011;502;48.746;9.214;2022-11-15T02:14:27;5.50;;;4.63;;
1026;SDS011;502;48.746;9.214;2022-11-15T02:17:36;4.30;;;3.70;;
1026;SDS011;502;48.746;9.214;2022-11-15T02:20:55;5.33;;;4.00;;
1026;SDS011;502;48.746;9.214;2022-11-15T02:27:57;4.87;;;4.23;;
1026;SDS011;502;48.746;9.214;2022-11-15T02:31:22;4.30;;;3.90;;
1026;SDS011;502;48.746;9.214;2022-11-15T02:34:33;5.50;;;3.57;;
1026;SDS011;502;48.746;9.214;2022-11-15T02:37:42;6.60;;;4.10;;
1026;SDS011;502;48.746;9.214;2022-11-15T02:40:51;3.90;;;3.27;;
1026;SDS011;502;48.746;9.214;2022-11-15T02:43:59;6.30;;;4.57;;
1026;SDS011;502;48.746;9.214;2022-11-15T02:47:07;6.10;;;3.93;;
1026;SDS011;502;48.746;9.214;2022-11-15T02:50:20;4.63;;;3.40;;
1026;SDS011;502;48.746;9.214;2022-11-15T02:53:26;4.70;;;3.57;;
1026;SDS011;502;48.746;9.214;2022-11-15T02:56:31;4.10;;;3.10;;
1026;SDS011;502;48.746;9.214;2022-11-15T02:59:45;3.33;;;3.00;;
1026;SDS011;502;48.746;9.214;2022-11-15T03:03:07;5.30;;;2.97;;
1026;SDS011;502;48.746;9.214;2022-11-15T03:06:26;4.00;;;2.57;;
1026;SDS011;502;48.746;9.214;2022-11-15T03:09:34;3.00;;;2.70;;
1026;SDS011;502;48.746;9.214;2022-11-15T03:12:41;4.40;;;3.20;;
1026;SDS011;502;48.746;9.214;2022-11-15T03:15:49;3.40;;;2.60;;
1026;SDS011;502;48.746;9.214;2022-11-15T03:18:59;2.83;;;2.43;;
1026;SDS011;502;48.746;9.214;2022-11-15T03:22:08;3.30;;;2.43;;
1026;SDS011;502;48.746;9.214;2022-11-15T03:25:17;4.80;;;3.10;;
1026;SDS011;502;48.746;9.214;2022-11-15T03:28:27;3.50;;;2.40;;
1026;SDS011;502;48.746;9.214;2022-11-15T03:31:36;3.20;;;2.67;;
1026;SDS011;502;48.746;9.214;2022-11-15T03:34:53;2.90;;;2.53;;
1026;SDS011;502;48.746;9.214;2022-11-15T03:38:03;5.10;;;2.80;;
1026;SDS011;502;48.746;9.214;2022-11-15T03:41:12;3.20;;;2.63;;
1026;SDS011;502;48.746;9.214;2022-11-15T03:44:22;2.70;;;2.30;;
1026;SDS011;502;48.746;9.214;2022-11-15T03:47:32;3.97;;;2.93;;
1026;SDS011;502;48.746;9.214;2022-11-15T03:50:41;3.40;;;2.90;;
1026;SDS011;502;48.746;9.214;2022-11-15T03:53:46;3.30;;;3.00;;
1026;SDS011;502;48.746;9.214;2022-11-15T03:56:51;4.23;;;2.77;;
1026;SDS011;502;48.746;9.214;2022-11-15T03:59:57;3.00;;;2.70;;
1026;SDS011;502;48.746;9.214;2022-11-15T04:03:02;3.60;;;2.70;;
1026;SDS011;502;48.746;9.214;2022-11-15T04:06:08;3.80;;;2.53;;
1026;SDS011;502;48.746;9.214;2022-11-15T04:09:12;4.03;;;3.00;;
1026;SDS011;502;48.746;9.214;2022-11-15T04:12:17;3.37;;;3.07;;
1026;SDS011;502;48.746;9.214;2022-11-15T04:15:34;3.30;;;2.80;;
1026;SDS011;502;48.746;9.214;2022-11-15T04:18:39;3.33;;;2.93;;
1026;SDS011;502;48.746;9.214;2022-11-15T04:21:48;4.73;;;2.63;;
1026;SDS011;502;48.746;9.214;2022-11-15T04:25:10;3.30;;;2.80;;
1026;SDS011;502;48.746;9.214;2022-11-15T04:28:15;3.77;;;3.10;;
1026;SDS011;502;48.746;9.214;2022-11-15T04:31:26;4.00;;;3.20;;
1026;SDS011;502;48.746;9.214;2022-11-15T04:34:31;3.20;;;2.90;;
1026;SDS011;502;48.746;9.214;2022-11-15T04:37:38;4.40;;;3.37;;
1026;SDS011;502;48.746;9.214;2022-11-15T04:40:42;6.17;;;3.57;;
1026;SDS011;502;48.746;9.214;2022-11-15T04:43:47;4.70;;;3.87;;
1026;SDS011;502;48.746;9.214;2022-11-15T04:46:52;4.00;;;3.30;;
1026;SDS011;502;48.746;9.214;2022-11-15T04:49:57;3.73;;;2.53;;
1026;SDS011;502;48.746;9.214;2022-11-15T04:53:04;4.50;;;3.07;;
1026;SDS011;502;48.746;9.214;2022-11-15T04:56:09;4.83;;;3.80;;
1026;SDS011;502;48.746;9.214;2022-11-15T04:59:15;4.27;;;3.63;;
1026;SDS011;502;48.746;9.214;2022-11-15T05:02:20;3.70;;;3.13;;
1026;SDS011;502;48.746;9.214;2022-11-15T05:05:25;4.33;;;3.27;;
1026;SDS011;502;48.746;9.214;2022-11-15T05:08:30;5.43;;;3.57;;
1026;SDS011;502;48.746;9.214;2022-11-15T05:11:36;4.03;;;3.50;;
1026;SDS011;502;48.746;9.214;2022-11-15T05:14:41;5.07;;;3.27;;
1026;SDS011;502;48.746;9.214;2022-11-15T05:17:45;4.33;;;3.47;;
1026;SDS011;502;48.746;9.214;2022-11-15T05:20:49;4.20;;;3.67;;
1026;SDS011;502;48.746;9.214;2022-11-15T05:23:55;4.00;;;3.33;;
1026;SDS011;502;48.746;9.214;2022-11-15T05:26:59;3.30;;;3.00;;
1026;SDS011;502;48.746;9.214;2022-11-15T05:30:04;4.60;;;3.30;;
1026;SDS011;502;48.746;9.214;2022-11-15T05:33:08;2.97;;;2.50;;
1026;SDS011;502;48.746;9.214;2022-11-15T05:36:14;4.13;;;3.20;;
1026;SDS011;502;48.746;9.214;2022-11-15T05:39:22;3.90;;;3.03;;
1026;SDS011;502;48.746;9.214;2022-11-15T05:42:28;3.90;;;3.10;;
1026;SDS011;502;48.746;9.214;2022-11-15T05:45:33;3.27;;;2.80;;
1026;SDS011;502;48.746;9.214;2022-11-15T05:48:38;3.83;;;3.20;;
1026;SDS011;502;48.746;9.214;2022-11-15T05:51:45;5.83;;;4.03;;
1026;SDS011;502;48.746;9.214;2022-11-15T05:54:52;6.20;;;4.23;;
1026;SDS011;502;48.746;9.214;2022-11-15T05:57:57;4.90;;;4.10;;
1026;SDS011;502;48.746;9.214;2022-11-15T06:01:01;10.73;;;4.60;;
1026;SDS011;502;48.746;9.214;2022-11-15T06:04:04;5.40;;;4.87;;
1026;SDS011;502;48.746;9.214;2022-11-15T06:07:09;5.30;;;4.43;;
1026;SDS011;502;48.746;9.214;2022-11-15T06:10:15;6.30;;;5.70;;
1026;SDS011;502;48.746;9.214;2022-11-15T06:13:19;7.07;;;5.10;;
1026;SDS011;502;48.746;9.214;2022-11-15T06:16:24;7.10;;;5.87;;
1026;SDS011;502;48.746;9.214;2022-11-15T06:19:28;8.20;;;6.00;;
1026;SDS011;502;48.746;9.214;2022-11-15T06:22:35;7.10;;;5.50;;
1026;SDS011;502;48.746;9.214;2022-11-15T06:25:40;6.53;;;5.47;;
1026;SDS011;502;48.746;9.214;2022-11-15T06:28:45;5.57;;;4.97;;
1026;SDS011;502;48.746;9.214;2022-11-15T06:31:49;5.67;;;5.00;;
1026;SDS011;502;48.746;9.214;2022-11-15T06:34:53;9.00;;;4.53;;
1026;SDS011;502;48.746;9.214;2022-11-15T06:38:01;8.10;;;4.80;;
1026;SDS011;502;48.746;9.214;2022-11-15T06:41:08;6.20;;;5.20;;
1026;SDS011;502;48.746;9.214;2022-11-15T06:44:13;6.47;;;4.90;;
1026;SDS011;502;48.746;9.214;2022-11-15T06:47:18;7.23;;;5.33;;
1026;SDS011;502;48.746;9.214;2022-11-15T06:50:23;4.43;;;4.03;;
1026;SDS011;502;48.746;9.214;2022-11-15T06:53:27;7.33;;;5.03;;
1026;SDS011;502;48.746;9.214;2022-11-15T06:56:34;6.80;;;4.63;;
1026;SDS011;502;48.746;9.214;2022-11-15T06:59:38;6.13;;;4.73;;
1026;SDS011;502;48.746;9.214;2022-11-15T07:02:43;6.30;;;5.40;;
1026;SDS011;502;48.746;9.214;2022-11-15T07:05:51;6.00;;;5.40;;
1026;SDS011;502;48.746;9.214;2022-11-15T07:08:56;6.20;;;5.60;;
1026;SDS011;502;48.746;9.214;2022-11-15T07:12:02;7.60;;;6.23;;
1026;SDS011;502;48.746;9.214;2022-11-15T07:15:07;6.43;;;5.67;;
1026;SDS011;502;48.746;9.214;2022-11-15T07:18:12;8.03;;;5.87;;
1026;SDS011;502;48.746;9.214;2022-11-15T07:21:16;6.30;;;5.63;;
1026;SDS011;502;48.746;9.214;2022-11-15T07:24:21;6.40;;;5.70;;
1026;SDS011;502;48.746;9.214;2022-11-15T07:27:26;5.60;;;5.10;;
1026;SDS011;502;48.746;9.214;2022-11-15T07:30:30;5.80;;;5.10;;
1026;SDS011;502;48.746;9.214;2022-11-15T07:33:35;6.00;;;4.40;;
1026;SDS011;502;48.746;9.214;2022-11-15T07:36:39;5.47;;;4.90;;
1026;SDS011;502;48.746;9.214;2022-11-15T07:39:46;8.33;;;5.63;;
1026;SDS011;502;48.746;9.214;2022-11-15T07:43:00;7.40;;;5.70;;
1026;SDS011;502;48.746;9.214;2022-11-15T07:46:05;6.30;;;5.30;;
1026;SDS011;502;48.746;9.214;2022-11-15T07:49:11;6.93;;;5.00;;
1026;SDS011;502;48.746;9.214;2022-11-15T07:52:16;5.50;;;4.70;;
1026;SDS011;502;48.746;9.214;2022-11-15T07:55:20;5.33;;;4.60;;
1026;SDS011;502;48.746;9.214;2022-11-15T07:58:26;4.90;;;4.40;;
1026;SDS011;502;48.746;9.214;2022-11-15T08:01:30;7.17;;;5.37;;
1026;SDS011;502;48.746;9.214;2022-11-15T08:04:35;6.53;;;4.70;;
1026;SDS011;502;48.746;9.214;2022-11-15T08:07:39;6.80;;;4.17;;
1026;SDS011;502;48.746;9.214;2022-11-15T08:10:43;6.40;;;4.40;;
1026;SDS011;502;48.746;9.214;2022-11-15T08:13:49;6.57;;;4.63;;
1026;SDS011;502;48.746;9.214;2022-11-15T08:16:54;4.90;;;3.90;;
1026;SDS011;502;48.746;9.214;2022-11-15T08:19:58;7.53;;;4.40;;
1026;SDS011;502;48.746;9.214;2022-11-15T08:23:02;5.23;;;4.53;;
1026;SDS011;502;48.746;9.214;2022-11-15T08:26:08;5.47;;;4.40;;
1026;SDS011;502;48.746;9.214;2022-11-15T08:29:13;6.77;;;5.50;;
1026;SDS011;502;48.746;9.214;2022-11-15T08:32:17;7.97;;;6.50;;
1026;SDS011;502;48.746;9.214;2022-11-15T08:35:22;6.20;;;5.60;;
1026;SDS011;502;48.746;9.214;2022-11-15T08:38:27;5.47;;;4.60;;
1026;SDS011;502;48.746;9.214;2022-11-15T08:41:33;7.80;;;4.13;;
1026;SDS011;502;48.746;9.214;2022-11-15T08:44:40;5.20;;;4.70;;
1026;SDS011;502;48.746;9.214;2022-11-15T08:47:45;5.13;;;4.13;;
1026;SDS011;502;48.746;9.214;2022-11-15T08:50:51;8.00;;;6.00;;
1026;SDS011;502;48.746;9.214;2022-11-15T08:53:57;6.60;;;4.93;;
1026;SDS011;502;48.746;9.214;2022-11-15T08:57:01;5.47;;;4.57;;
1026;SDS011;502;48.746;9.214;2022-11-15T09:00:08;4.70;;;4.20;;
1026;SDS011;502;48.746;9.214;2022-11-15T09:03:13;4.33;;;3.57;;
1026;SDS011;502;48.746;9.214;2022-11-15T09:06:18;6.50;;;5.30;;
1026;SDS011;502;48.746;9.214;2022-11-15T09:09:22;4.67;;;4.17;;
1026;SDS011;502;48.746;9.214;2022-11-15T09:12:26;4.93;;;4.43;;
1026;SDS011;502;48.746;9.214;2022-11-15T09:15:32;8.30;;;5.97;;
1026;SDS011;502;48.746;9.214;2022-11-15T09:18:36;10.53;;;7.80;;
1026;SDS011;502;48.746;9.214;2022-11-15T09:21:40;9.73;;;6.67;;
1026;SDS011;502;48.746;9.214;2022-11-15T09:24:44;8.87;;;5.97;;
1026;SDS011;502;48.746;9.214;2022-11-15T09:27:49;10.10;;;7.30;;
1026;SDS011;502;48.746;9.214;2022-11-15T09:30:56;7.90;;;6.57;;
1026;SDS011;502;48.746;9.214;2022-11-15T09:34:02;8.17;;;5.17;;
1026;SDS011;502;48.746;9.214;2022-11-15T09:37:06;6.70;;;5.57;;
1026;SDS011;502;48.746;9.214;2022-11-15T09:40:11;7.73;;;5.00;;
1026;SDS011;502;48.746;9.214;2022-11-15T09:43:29;6.43;;;5.30;;
1026;SDS011;502;48.746;9.214;2022-11-15T09:46:45;7.07;;;5.80;;
1026;SDS011;502;48.746;9.214;2022-11-15T09:50:14;6.27;;;4.80;;
1026;SDS011;502;48.746;9.214;2022-11-15T09:53:01;4.50;;;4.00;;
1026;SDS011;502;48.746;9.214;2022-11-15T09:55:48;8.87;;;6.30;;
1026;SDS011;502;48.746;9.214;2022-11-15T09:58:39;7.37;;;6.57;;
1026;SDS011;502;48.746;9.214;2022-11-15T10:01:33;6.73;;;5.50;;
1026;SDS011;502;48.746;9.214;2022-11-15T10:04:25;9.30;;;6.90;;
1026;SDS011;502;48.746;9.214;2022-11-15T10:07:13;7.43;;;6.60;;
1026;SDS011;502;48.746;9.214;2022-11-15T10:10:00;6.67;;;5.00;;
1026;SDS011;502;48.746;9.214;2022-11-15T10:12:48;8.07;;;5.40;;
1026;SDS011;502;48.746;9.214;2022-11-15T10:15:35;9.63;;;7.00;;
1026;SDS011;502;48.746;9.214;2022-11-15T10:18:22;5.63;;;5.10;;
1026;SDS011;502;48.746;9.214;2022-11-15T10:21:13;10.33;;;7.53;;
1026;SDS011;502;48.746;9.214;2022-11-15T10:24:05;8.90;;;7.27;;
1026;SDS011;502;48.746;9.214;2022-11-15T10:26:55;10.20;;;7.63;;
1026;SDS011;502;48.746;9.214;2022-11-15T10:29:42;7.60;;;6.23;;
1026;SDS011;502;48.746;9.214;2022-11-15T10:32:28;5.57;;;4.83;;
1026;SDS011;502;48.746;9.214;2022-11-15T10:35:20;5.40;;;4.37;;
1026;SDS011;502;48.746;9.214;2022-11-15T10:38:10;5.17;;;4.30;;
1026;SDS011;502;48.746;9.214;2022-11-15T10:41:06;5.00;;;4.50;;
1026;SDS011;502;48.746;9.214;2022-11-15T10:44:01;5.70;;;4.83;;
1026;SDS011;502;48.746;9.214;2022-11-15T10:50:28;5.60;;;4.03;;
1026;SDS011;502;48.746;9.214;2022-11-15T10:53:15;8.83;;;4.70;;
1026;SDS011;502;48.746;9.214;2022-11-15T10:56:05;4.90;;;4.40;;
1026;SDS011;502;48.746;9.214;2022-11-15T10:58:54;6.97;;;5.00;;
1026;SDS011;502;48.746;9.214;2022-11-15T11:01:45;4.93;;;4.23;;
1026;SDS011;502;48.746;9.214;2022-11-15T11:07:35;5.90;;;4.73;;
1026;SDS011;502;48.746;9.214;2022-11-15T11:10:21;4.90;;;4.40;;
1026;SDS011;502;48.746;9.214;2022-11-15T11:13:13;6.80;;;5.40;;
1026;SDS011;502;48.746;9.214;2022-11-15T11:16:02;6.57;;;5.70;;
1026;SDS011;502;48.746;9.214;2022-11-15T11:19:14;7.60;;;5.60;;
1026;SDS011;502;48.746;9.214;2022-11-15T11:22:06;6.07;;;5.40;;
1026;SDS011;502;48.746;9.214;2022-11-15T11:24:59;7.83;;;5.70;;
1026;SDS011;502;48.746;9.214;2022-11-15T11:27:55;5.90;;;5.30;;
1026;SDS011;502;48.746;9.214;2022-11-15T11:30:47;8.20;;;5.40;;
1026;SDS011;502;48.746;9.214;2022-11-15T11:33:55;6.47;;;5.47;;
1026;SDS011;502;48.746;9.214;2022-11-15T11:36:45;7.23;;;5.23;;
1026;SDS011;502;48.746;9.214;2022-11-15T11:39:36;5.90;;;5.03;;
1026;SDS011;502;48.746;9.214;2022-11-15T11:42:32;6.10;;;5.17;;
1026;SDS011;502;48.746;9.214;2022-11-15T11:45:24;7.77;;;5.60;;
1026;SDS011;502;48.746;9.214;2022-11-15T11:48:20;6.87;;;5.60;;
1026;SDS011;502;48.746;9.214;2022-11-15T11:51:15;5.37;;;4.87;;
1026;SDS011;502;48.746;9.214;2022-11-15T11:54:03;5.77;;;5.17;;
1026;SDS011;502;48.746;9.214;2022-11-15T11:56:51;4.93;;;4.40;;
1026;SDS011;502;48.746;9.214;2022-11-15T11:59:41;6.67;;;4.30;;
1026;SDS011;502;48.746;9.214;2022-11-15T12:02:31;5.60;;;5.00;;
1026;SDS011;502;48.746;9.214;2022-11-15T12:05:20;6.30;;;5.27;;
1026;SDS011;502;48.746;9.214;2022-11-15T12:08:22;8.90;;;5.20;;
1026;SDS011;502;48.746;9.214;2022-11-15T12:11:13;10.37;;;6.53;;
1026;SDS011;502;48.746;9.214;2022-11-15T12:14:00;5.80;;;5.20;;
1026;SDS011;502;48.746;9.214;2022-11-15T12:16:48;7.80;;;6.50;;
1026;SDS011;502;48.746;9.214;2022-11-15T12:19:33;8.67;;;6.10;;
1026;SDS011;502;48.746;9.214;2022-11-15T12:22:20;7.17;;;5.97;;
1026;SDS011;502;48.746;9.214;2022-11-15T12:25:08;7.00;;;6.30;;
1026;SDS011;502;48.746;9.214;2022-11-15T12:28:01;7.63;;;6.67;;
1026;SDS011;502;48.746;9.214;2022-11-15T12:30:51;7.50;;;6.70;;
1026;SDS011;502;48.746;9.214;2022-11-15T12:33:41;6.90;;;6.20;;
1026;SDS011;502;48.746;9.214;2022-11-15T12:36:32;7.50;;;6.30;;
1026;SDS011;502;48.746;9.214;2022-11-15T12:39:20;8.90;;;6.20;;
1026;SDS011;502;48.746;9.214;2022-11-15T12:45:25;9.17;;;7.07;;
1026;SDS011;502;48.746;9.214;2022-11-15T12:54:55;9.63;;;6.53;;
1026;SDS011;502;48.746;9.214;2022-11-15T12:57:51;8.10;;;6.10;;
1026;SDS011;502;48.746;9.214;2022-11-15T13:00:37;8.77;;;6.97;;
1026;SDS011;502;48.746;9.214;2022-11-15T13:03:24;6.03;;;5.43;;
1026;SDS011;502;48.746;9.214;2022-11-15T13:12:49;7.20;;;5.63;;
1026;SDS011;502;48.746;9.214;2022-11-15T13:15:51;10.53;;;5.70;;
1026;SDS011;502;48.746;9.214;2022-11-15T13:18:40;10.67;;;5.60;;
1026;SDS011;502;48.746;9.214;2022-11-15T13:21:25;7.00;;;5.63;;
1026;SDS011;502;48.746;9.214;2022-11-15T13:24:28;8.40;;;5.63;;
1026;SDS011;502;48.746;9.214;2022-11-15T13:27:15;9.03;;;5.77;;
1026;SDS011;502;48.746;9.214;2022-11-15T13:30:03;5.63;;;4.70;;
1026;SDS011;502;48.746;9.214;2022-11-15T13:32:49;7.47;;;4.93;;
1026;SDS011;502;48.746;9.214;2022-11-15T13:35:36;5.43;;;4.80;;
1026;SDS011;502;48.746;9.214;2022-11-15T13:38:27;7.33;;;5.27;;
1026;SDS011;502;48.746;9.214;2022-11-15T13:41:17;9.27;;;5.77;;
1026;SDS011;502;48.746;9.214;2022-11-15T13:44:05;9.10;;;5.90;;
1026;SDS011;502;48.746;9.214;2022-11-15T13:47:05;5.90;;;5.30;;
1026;SDS011;502;48.746;9.214;2022-11-15T13:49:51;8.10;;;6.13;;
1026;SDS011;502;48.746;9.214;2022-11-15T13:52:36;7.43;;;6.27;;
1026;SDS011;502;48.746;9.214;2022-11-15T13:55:23;8.93;;;6.87;;
1026;SDS011;502;48.746;9.214;2022-11-15T13:58:09;8.07;;;6.03;;
1026;SDS011;502;48.746;9.214;2022-11-15T14:00:59;7.90;;;7.03;;
1026;SDS011;502;48.746;9.214;2022-11-15T14:03:50;8.13;;;7.27;;
1026;SDS011;502;48.746;9.214;2022-11-15T14:06:42;10.30;;;6.90;;
1026;SDS011;502;48.746;9.214;2022-11-15T14:09:33;8.90;;;7.40;;
1026;SDS011;502;48.746;9.214;2022-11-15T14:12:28;8.37;;;7.30;;
1026;SDS011;502;48.746;9.214;2022-11-15T14:15:19;17.10;;;7.17;;
1026;SDS011;502;48.746;9.214;2022-11-15T14:21:26;8.37;;;7.47;;
1026;SDS011;502;48.746;9.214;2022-11-15T14:24:14;10.20;;;7.87;;
1026;SDS011;502;48.746;9.214;2022-11-15T14:27:15;11.80;;;6.70;;
1026;SDS011;502;48.746;9.214;2022-11-15T14:30:01;7.60;;;6.87;;
1026;SDS011;502;48.746;9.214;2022-11-15T14:32:47;7.53;;;6.13;;
1026;SDS011;502;48.746;9.214;2022-11-15T14:35:37;8.43;;;7.40;;
1026;SDS011;502;48.746;9.214;2022-11-15T14:38:23;11.27;;;9.03;;
1026;SDS011;502;48.746;9.214;2022-11-15T14:41:10;8.90;;;6.00;;
1026;SDS011;502;48.746;9.214;2022-11-15T14:44:05;7.90;;;6.03;;
1026;SDS011;502;48.746;9.214;2022-11-15T14:46:51;6.03;;;5.40;;
1026;SDS011;502;48.746;9.214;2022-11-15T14:49:37;8.40;;;5.63;;
1026;SDS011;502;48.746;9.214;2022-11-15T14:52:27;7.63;;;5.50;;
1026;SDS011;502;48.746;9.214;2022-11-15T14:55:15;5.50;;;5.00;;
1026;SDS011;502;48.746;9.214;2022-11-15T14:58:03;6.30;;;5.20;;
1026;SDS011;502;48.746;9.214;2022-11-15T15:00:49;6.33;;;5.60;;
1026;SDS011;502;48.746;9.214;2022-11-15T15:03:35;7.37;;;5.90;;
1026;SDS011;502;48.746;9.214;2022-11-15T15:06:20;8.33;;;6.10;;
1026;SDS011;502;48.746;9.214;2022-11-15T15:09:07;7.90;;;6.80;;
1026;SDS011;502;48.746;9.214;2022-11-15T15:11:52;8.27;;;7.23;;
1026;SDS011;502;48.746;9.214;2022-11-15T15:14:38;9.47;;;7.03;;
1026;SDS011;502;48.746;9.214;2022-11-15T15:17:24;7.33;;;6.27;;
1026;SDS011;502;48.746;9.214;2022-11-15T15:20:09;8.07;;;6.70;;
1026;SDS011;502;48.746;9.214;2022-11-15T15:22:55;6.70;;;6.10;;
1026;SDS011;502;48.746;9.214;2022-11-15T15:25:42;9.50;;;7.23;;
1026;SDS011;502;48.746;9.214;2022-11-15T15:28:27;11.73;;;7.60;;
1026;SDS011;502;48.746;9.214;2022-11-15T15:31:13;8.43;;;7.63;;
1026;SDS011;502;48.746;9.214;2022-11-15T15:33:58;8.93;;;7.17;;
1026;SDS011;502;48.746;9.214;2022-11-15T15:36:44;9.63;;;8.00;;
1026;SDS011;502;48.746;9.214;2022-11-15T15:39:29;9.00;;;7.83;;
1026;SDS011;502;48.746;9.214;2022-11-15T15:42:16;14.77;;;9.63;;
1026;SDS011;502;48.746;9.214;2022-11-15T15:45:02;9.83;;;7.57;;
1026;SDS011;502;48.746;9.214;2022-11-15T15:47:48;7.70;;;7.07;;
1026;SDS011;502;48.746;9.214;2022-11-15T15:50:35;8.93;;;8.00;;
1026;SDS011;502;48.746;9.214;2022-11-15T15:53:21;10.27;;;8.17;;
1026;SDS011;502;48.746;9.214;2022-11-15T15:56:07;8.93;;;7.50;;
1026;SDS011;502;48.746;9.214;2022-11-15T15:58:54;9.50;;;8.50;;
1026;SDS011;502;48.746;9.214;2022-11-15T16:01:40;9.20;;;7.40;;
1026;SDS011;502;48.746;9.214;2022-11-15T16:04:25;11.20;;;8.17;;
1026;SDS011;502;48.746;9.214;2022-11-15T16:07:15;9.43;;;8.53;;
1026;SDS011;502;48.746;9.214;2022-11-15T16:10:02;8.77;;;7.80;;
1026;SDS011;502;48.746;9.214;2022-11-15T16:12:48;9.60;;;8.07;;
1026;SDS011;502;48.746;9.214;2022-11-15T16:15:35;12.50;;;8.60;;
1026;SDS011;502;48.746;9.214;2022-11-15T16:18:20;9.20;;;8.20;;
1026;SDS011;502;48.746;9.214;2022-11-15T16:21:07;8.80;;;7.73;;
1026;SDS011;502;48.746;9.214;2022-11-15T16:23:53;9.90;;;8.63;;
1026;SDS011;502;48.746;9.214;2022-11-15T16:26:38;8.87;;;7.97;;
1026;SDS011;502;48.746;9.214;2022-11-15T16:29:24;12.07;;;8.00;;
1026;SDS011;502;48.746;9.214;2022-11-15T16:32:11;8.53;;;7.70;;
1026;SDS011;502;48.746;9.214;2022-11-15T16:34:56;9.23;;;8.33;;
1026;SDS011;502;48.746;9.214;2022-11-15T16:37:43;9.50;;;8.50;;
1026;SDS011;502;48.746;9.214;2022-11-15T16:40:30;12.80;;;8.80;;
1026;SDS011;502;48.746;9.214;2022-11-15T16:43:16;9.97;;;8.90;;
1026;SDS011;502;48.746;9.214;2022-11-15T16:46:01;10.40;;;8.80;;
1026;SDS011;502;48.746;9.214;2022-11-15T16:48:53;10.13;;;7.73;;
1026;SDS011;502;48.746;9.214;2022-11-15T16:51:39;9.53;;;7.77;;
1026;SDS011;502;48.746;9.214;2022-11-15T16:54:24;9.67;;;8.67;;
1026;SDS011;502;48.746;9.214;2022-11-15T16:57:09;9.77;;;7.80;;
1026;SDS011;502;48.746;9.214;2022-11-15T16:59:55;9.10;;;8.03;;
1026;SDS011;502;48.746;9.214;2022-11-15T17:02:41;10.97;;;8.80;;
1026;SDS011;502;48.746;9.214;2022-11-15T17:05:29;12.30;;;8.80;;
1026;SDS011;502;48.746;9.214;2022-11-15T17:08:14;9.10;;;7.70;;
1026;SDS011;502;48.746;9.214;2022-11-15T17:11:00;9.50;;;8.50;;
1026;SDS011;502;48.746;9.214;2022-11-15T17:13:49;11.30;;;9.17;;
1026;SDS011;502;48.746;9.214;2022-11-15T17:16:35;11.97;;;10.70;;
1026;SDS011;502;48.746;9.214;2022-11-15T17:19:25;14.00;;;9.90;;
1026;SDS011;502;48.746;9.214;2022-11-15T17:22:11;12.97;;;10.13;;
1026;SDS011;502;48.746;9.214;2022-11-15T17:24:57;14.70;;;10.80;;
1026;SDS011;502;48.746;9.214;2022-11-15T17:27:42;10.37;;;9.10;;
1026;SDS011;502;48.746;9.214;2022-11-15T17:30:27;9.83;;;8.90;;
1026;SDS011;502;48.746;9.214;2022-11-15T17:33:12;13.37;;;9.80;;
1026;SDS011;502;48.746;9.214;2022-11-15T17:35:59;11.63;;;9.73;;
1026;SDS011;502;48.746;9.214;2022-11-15T17:38:46;9.53;;;8.53;;
1026;SDS011;502;48.746;9.214;2022-11-15T17:41:35;10.47;;;7.60;;
1026;SDS011;502;48.746;9.214;2022-11-15T17:44:21;9.07;;;8.03;;
1026;SDS011;502;48.746;9.214;2022-11-15T17:47:06;9.93;;;8.93;;
1026;SDS011;502;48.746;9.214;2022-11-15T17:49:52;10.10;;;7.80;;
1026;SDS011;502;48.746;9.214;2022-11-15T17:52:37;8.97;;;7.30;;
1026;SDS011;502;48.746;9.214;2022-11-15T17:55:24;10.67;;;6.90;;
1026;SDS011;502;48.746;9.214;2022-11-15T17:58:09;7.27;;;6.57;;
1026;SDS011;502;48.746;9.214;2022-11-15T18:00:54;8.30;;;6.97;;
1026;SDS011;502;48.746;9.214;2022-11-15T18:03:40;8.63;;;7.07;;
1026;SDS011;502;48.746;9.214;2022-11-15T18:06:25;9.43;;;8.43;;
1026;SDS011;502;48.746;9.214;2022-11-15T18:09:13;10.57;;;9.47;;
1026;SDS011;502;48.746;9.214;2022-11-15T18:12:00;11.70;;;9.70;;
1026;SDS011;502;48.746;9.214;2022-11-15T18:14:45;12.40;;;9.70;;
1026;SDS011;502;48.746;9.214;2022-11-15T18:17:30;14.53;;;10.80;;
1026;SDS011;502;48.746;9.214;2022-11-15T18:20:16;14.57;;;11.27;;
1026;SDS011;502;48.746;9.214;2022-11-15T18:23:02;12.10;;;10.40;;
1026;SDS011;502;48.746;9.214;2022-11-15T18:25:50;13.67;;;11.07;;
1026;SDS011;502;48.746;9.214;2022-11-15T18:28:37;13.80;;;10.50;;
1026;SDS011;502;48.746;9.214;2022-11-15T18:31:25;14.10;;;11.80;;
1026;SDS011;502;48.746;9.214;2022-11-15T18:34:11;14.03;;;10.70;;
1026;SDS011;502;48.746;9.214;2022-11-15T18:36:56;14.00;;;9.63;;
1026;SDS011;502;48.746;9.214;2022-11-15T18:39:42;10.90;;;8.80;;
1026;SDS011;502;48.746;9.214;2022-11-15T18:42:27;11.10;;;10.00;;
1026;SDS011;502;48.746;9.214;2022-11-15T18:45:17;11.37;;;10.27;;
1026;SDS011;502;48.746;9.214;2022-11-15T18:48:02;11.17;;;10.07;;
1026;SDS011;502;48.746;9.214;2022-11-15T18:50:48;11.00;;;9.90;;
1026;SDS011;502;48.746;9.214;2022-11-15T18:53:34;10.97;;;9.87;;
1026;SDS011;502;48.746;9.214;2022-11-15T18:56:21;13.67;;;10.30;;
1026;SDS011;502;48.746;9.214;2022-11-15T18:59:07;11.00;;;9.90;;
1026;SDS011;502;48.746;9.214;2022-11-15T19:01:54;10.03;;;8.90;;
1026;SDS011;502;48.746;9.214;2022-11-15T19:04:39;14.43;;;9.10;;
1026;SDS011;502;48.746;9.214;2022-11-15T19:07:24;12.53;;;9.97;;